Time;durP1;ratioP1;P1;durP2;ratioP2;P2;SDS_P1;SDS_P2;PMS_P1;PMS_P2;Temp;Humidity;BMP_temperature;BMP_pressure;BME280_temperature;BME280_humidity;BME280_pressure;Samples;Min_cycle;Max_cycle;Signal;HPM_P1;HPM_P2
2022/05/21 00:02:08;;;;;;;3.67;1.13;;;16.90;99.90;;;;;;5045980;28;20086;-71
2022/05/21 00:04:41;;;;;;;6.10;1.40;;;16.90;99.90;;;;;;5045809;28;20542;-67
2022/05/21 00:07:11;;;;;;;3.70;1.20;;;16.80;99.90;;;;;;5040878;28;20056;-70
2022/05/21 00:09:39;;;;;;;5.45;1.25;;;16.90;99.90;;;;;;5051021;28;20244;-68
2022/05/21 00:12:07;;;;;;;4.22;1.17;;;17.00;99.90;;;;;;5047221;28;20033;-70
2022/05/21 00:14:34;;;;;;;7.60;1.55;;;17.10;99.90;;;;;;5046751;28;20086;-73
2022/05/21 00:17:02;;;;;;;3.10;1.30;;;17.30;99.90;;;;;;5048619;28;20036;-73
2022/05/21 00:19:29;;;;;;;4.15;1.42;;;17.50;99.90;;;;;;5053453;28;20025;-69
2022/05/21 00:21:56;;;;;;;3.70;1.38;;;17.60;99.90;;;;;;5049587;28;20282;-71
2022/05/21 00:24:23;;;;;;;3.50;1.50;;;17.60;99.90;;;;;;5050969;28;20466;-72
2022/05/21 00:26:50;;;;;;;8.05;1.80;;;17.70;99.90;;;;;;5048969;28;20151;-69
2022/05/21 00:29:20;;;;;;;5.38;2.20;;;17.70;99.90;;;;;;5040217;28;20044;-69
2022/05/21 00:31:51;;;;;;;4.57;1.50;;;17.70;99.90;;;;;;5053080;28;20419;-70
2022/05/21 00:34:19;;;;;;;6.68;1.55;;;17.90;99.90;;;;;;5055825;28;20113;-72
2022/05/21 00:36:46;;;;;;;5.47;1.77;;;17.80;99.90;;;;;;5054349;28;20021;-69
2022/05/21 00:39:13;;;;;;;5.93;1.90;;;17.80;99.90;;;;;;5052947;28;20108;-72
2022/05/21 00:41:41;;;;;;;5.13;1.60;;;17.80;99.90;;;;;;5053338;28;20464;-71
2022/05/21 00:44:09;;;;;;;6.63;1.50;;;18.10;99.90;;;;;;5051996;28;20390;-70
2022/05/21 00:46:39;;;;;;;4.28;1.30;;;18.20;99.90;;;;;;5050471;28;20502;-72
2022/05/21 00:49:24;;;;;;;4.47;1.40;;;18.40;99.90;;;;;;5055478;28;20021;-69
2022/05/21 00:52:03;;;;;;;5.57;1.42;;;18.40;99.90;;;;;;5053276;28;20032;-71
2022/05/21 00:54:33;;;;;;;6.28;1.88;;;18.30;99.90;;;;;;5050721;28;20028;-72
2022/05/21 00:57:09;;;;;;;4.60;1.67;;;18.20;99.90;;;;;;5050823;28;20420;-69
2022/05/21 00:59:50;;;;;;;4.03;1.35;;;18.00;99.90;;;;;;5054467;28;20075;-69
2022/05/21 01:02:26;;;;;;;5.72;1.23;;;17.90;99.90;;;;;;5048857;28;20091;-68
2022/05/21 01:04:56;;;;;;;3.83;1.33;;;17.90;99.90;;;;;;5051167;28;20503;-69
2022/05/21 01:07:25;;;;;;;7.25;1.92;;;17.90;99.90;;;;;;5052618;28;20025;-74
2022/05/21 01:09:57;;;;;;;4.35;1.52;;;17.70;99.90;;;;;;5049988;28;20119;-72
2022/05/21 01:12:28;;;;;;;6.03;1.00;;;17.70;99.90;;;;;;5048957;28;20048;-72
2022/05/21 01:15:02;;;;;;;2.92;0.90;;;17.50;99.90;;;;;;5049165;28;20175;-74
2022/05/21 01:17:30;;;;;;;6.25;1.45;;;17.60;99.90;;;;;;5047524;28;20048;-71
2022/05/21 01:20:02;;;;;;;6.45;1.35;;;17.80;99.90;;;;;;5047403;28;20067;-71
2022/05/21 01:22:31;;;;;;;5.95;1.90;;;17.90;99.90;;;;;;5048479;28;20021;-70
2022/05/21 01:24:58;;;;;;;3.17;1.08;;;18.10;99.90;;;;;;5048927;28;20024;-71
2022/05/21 01:27:27;;;;;;;8.02;1.70;;;18.20;99.90;;;;;;5045300;28;20025;-68
2022/05/21 01:29:55;;;;;;;4.72;1.15;;;18.40;99.90;;;;;;5048077;28;20056;-69
2022/05/21 01:32:22;;;;;;;6.68;1.20;;;18.50;99.90;;;;;;5045316;28;20009;-70
2022/05/21 01:34:49;;;;;;;2.88;1.27;;;18.50;99.90;;;;;;5062844;28;20502;-72
2022/05/21 01:37:16;;;;;;;5.55;1.20;;;18.40;99.90;;;;;;5057026;28;20375;-69
2022/05/21 01:39:43;;;;;;;3.75;1.20;;;18.40;99.90;;;;;;4364899;28;10000784;-72
2022/05/21 01:42:10;;;;;;;6.88;1.35;;;18.30;99.90;;;;;;5057093;28;20021;-70
2022/05/21 01:44:40;;;;;;;4.60;1.30;;;18.20;99.90;;;;;;5060472;28;20029;-71
2022/05/21 01:47:13;;;;;;;5.75;1.42;;;18.10;99.90;;;;;;5053957;28;20033;-70
2022/05/21 01:49:41;;;;;;;4.60;1.40;;;18.10;99.90;;;;;;5057839;28;20526;-71
2022/05/21 01:52:10;;;;;;;3.63;1.00;;;18.10;99.90;;;;;;5052199;28;20057;-72
2022/05/21 01:54:37;;;;;;;3.35;1.20;;;18.20;99.90;;;;;;5052785;28;20024;-72
2022/05/21 01:57:06;;;;;;;5.38;1.40;;;18.30;99.90;;;;;;5049922;28;20127;-72
2022/05/21 01:59:33;;;;;;;4.20;1.30;;;18.30;99.90;;;;;;5033335;28;20174;-70
2022/05/21 02:02:01;;;;;;;2.88;1.65;;;18.20;99.90;;;;;;5047627;28;20191;-69
2022/05/21 02:04:28;;;;;;;5.40;1.80;;;18.20;99.90;;;;;;5052740;28;20353;-67
2022/05/21 02:06:55;;;;;;;6.43;1.27;;;18.20;99.90;;;;;;5050459;28;20024;-68
2022/05/21 02:09:22;;;;;;;5.45;1.55;;;18.20;99.90;;;;;;5050755;28;20478;-68
2022/05/21 02:11:49;;;;;;;6.25;1.75;;;18.20;99.90;;;;;;5053517;28;20032;-68
2022/05/21 02:14:17;;;;;;;8.30;1.55;;;18.10;99.90;;;;;;5047441;28;20025;-68
2022/05/21 02:16:44;;;;;;;7.53;1.90;;;18.20;99.90;;;;;;5037142;28;20391;-69
2022/05/21 02:19:11;;;;;;;6.82;1.70;;;18.30;99.90;;;;;;5048917;28;20059;-67
2022/05/21 02:21:40;;;;;;;6.80;1.83;;;18.20;99.90;;;;;;5051131;28;20486;-70
2022/05/21 02:24:08;;;;;;;7.05;1.88;;;18.20;99.90;;;;;;5052612;28;20021;-65
2022/05/21 02:26:37;;;;;;;7.20;1.80;;;18.20;99.90;;;;;;5053339;28;20025;-68
2022/05/21 02:29:04;;;;;;;7.55;2.13;;;18.20;99.90;;;;;;5051073;28;20091;-66
2022/05/21 02:31:32;;;;;;;7.90;2.00;;;18.20;99.90;;;;;;5050735;28;20438;-68
2022/05/21 02:33:59;;;;;;;7.53;1.70;;;18.20;99.90;;;;;;5051162;28;20029;-69
2022/05/21 02:39:27;;;;;;;3.65;1.63;;;18.40;99.90;;;;;;5051468;28;20521;-69
2022/05/21 02:41:56;;;;;;;4.40;1.58;;;18.40;99.90;;;;;;5055295;28;20538;-68
2022/05/21 02:44:23;;;;;;;6.95;2.20;;;18.50;99.90;;;;;;5052399;28;20420;-69
2022/05/21 02:46:56;;;;;;;3.47;1.38;;;18.60;99.90;;;;;;5043872;28;20032;-69
2022/05/21 02:49:23;;;;;;;5.90;1.40;;;18.60;99.90;;;;;;5048125;28;20139;-70
2022/05/21 02:51:50;;;;;;;4.20;1.90;;;18.50;99.90;;;;;;5050854;28;20104;-66
2022/05/21 02:54:18;;;;;;;4.85;1.40;;;18.50;99.90;;;;;;5054959;28;20031;-69
2022/05/21 02:56:50;;;;;;;6.05;1.15;;;18.60;99.90;;;;;;5053821;28;20035;-70
2022/05/21 02:59:18;;;;;;;4.00;1.55;;;18.60;99.90;;;;;;5050928;28;20086;-69
2022/05/21 03:01:44;;;;;;;5.90;1.35;;;18.50;99.90;;;;;;5052938;28;20041;-69
2022/05/21 03:04:11;;;;;;;5.30;1.10;;;18.50;99.90;;;;;;5050232;28;20040;-70
2022/05/21 03:06:39;;;;;;;4.30;1.00;;;18.50;99.90;;;;;;5062178;28;20025;-69
2022/05/21 03:11:51;;;;;;;4.10;1.25;;;18.60;99.90;;;;;;5049759;28;20807;-69
2022/05/21 03:14:18;;;;;;;6.10;1.42;;;18.60;99.90;;;;;;5041014;28;20029;-71
2022/05/21 03:16:45;;;;;;;4.70;1.38;;;18.50;99.90;;;;;;5040488;28;20031;-69
2022/05/21 03:19:12;;;;;;;4.97;0.90;;;18.50;99.90;;;;;;5045286;28;20035;-65
2022/05/21 03:21:39;;;;;;;4.38;1.33;;;18.60;99.90;;;;;;5042670;28;20025;-68
2022/05/21 03:24:06;;;;;;;6.63;1.40;;;18.60;99.90;;;;;;5025390;28;20486;-68
2022/05/21 03:26:33;;;;;;;7.78;2.08;;;18.70;99.90;;;;;;5038722;28;20033;-69
2022/05/21 03:29:00;;;;;;;4.10;1.25;;;18.70;99.90;;;;;;5046675;28;20505;-66
2022/05/21 03:31:27;;;;;;;3.53;1.52;;;18.70;99.90;;;;;;5057787;28;20031;-68
2022/05/21 03:33:54;;;;;;;4.28;1.13;;;18.60;99.90;;;;;;5048923;28;20068;-68
2022/05/21 03:36:21;;;;;;;5.07;0.95;;;18.60;99.90;;;;;;5048506;28;20107;-68
2022/05/21 03:38:49;;;;;;;3.28;0.90;;;18.60;99.90;;;;;;5040823;28;20383;-68
2022/05/21 03:41:16;;;;;;;8.23;1.50;;;18.60;99.90;;;;;;5041546;28;20037;-65
2022/05/21 03:43:44;;;;;;;2.15;1.00;;;18.70;99.90;;;;;;5043374;28;20039;-67
2022/05/21 03:46:11;;;;;;;6.50;1.30;;;18.80;99.90;;;;;;5029940;28;20057;-69
2022/05/21 03:48:38;;;;;;;4.47;1.67;;;18.70;99.90;;;;;;5046093;28;20032;-68
2022/05/21 03:51:05;;;;;;;6.80;1.33;;;18.70;99.90;;;;;;5048665;28;20107;-68
2022/05/21 03:53:32;;;;;;;3.25;1.08;;;18.60;99.90;;;;;;5038906;28;20565;-68
2022/05/21 03:55:59;;;;;;;4.82;1.08;;;18.70;99.90;;;;;;5057950;22;20106;-67
2022/05/21 03:58:26;;;;;;;2.45;1.15;;;18.70;99.90;;;;;;5043659;28;20391;-68
2022/05/21 04:00:53;;;;;;;4.50;0.93;;;18.70;99.90;;;;;;5039908;28;20115;-65
2022/05/21 04:03:20;;;;;;;4.53;1.27;;;18.70;99.90;;;;;;5020151;28;20117;-67
2022/05/21 04:05:47;;;;;;;3.55;1.10;;;18.70;99.90;;;;;;5041421;28;20025;-69
2022/05/21 04:08:16;;;;;;;4.60;1.13;;;18.70;99.90;;;;;;5040041;28;20027;-69
2022/05/21 04:10:43;;;;;;;4.85;1.08;;;18.70;99.90;;;;;;5015301;28;20029;-74
2022/05/21 04:13:10;;;;;;;5.22;1.25;;;18.60;99.90;;;;;;5042081;28;20048;-71
2022/05/21 04:15:37;;;;;;;4.00;1.30;;;18.50;99.90;;;;;;5038636;28;20044;-69
2022/05/21 04:18:04;;;;;;;3.33;1.02;;;18.40;99.90;;;;;;5039350;28;20095;-70
2022/05/21 04:20:32;;;;;;;4.03;1.30;;;18.40;99.90;;;;;;5039455;28;20117;-68
2022/05/21 04:22:59;;;;;;;5.53;1.30;;;18.40;99.90;;;;;;5036421;28;20499;-71
2022/05/21 04:25:26;;;;;;;3.63;1.20;;;18.50;99.90;;;;;;5040703;28;20024;-66
2022/05/21 04:27:53;;;;;;;5.18;1.30;;;18.40;99.90;;;;;;5039629;28;20467;-67
2022/05/21 04:30:29;;;;;;;4.20;1.08;;;18.50;99.90;;;;;;5038358;28;20113;-69
2022/05/21 04:32:57;;;;;;;4.88;0.93;;;18.50;99.90;;;;;;5037353;28;20013;-72
2022/05/21 04:36:17;;;;;;;2.47;1.20;;;18.60;99.90;;;;;;5037571;28;20525;-71
2022/05/21 04:38:13;;;;;;;5.68;1.27;;;18.60;99.90;;;;;;5039626;28;20039;-67
2022/05/21 04:40:41;;;;;;;3.80;1.30;;;18.50;99.90;;;;;;5034463;28;20030;-72
2022/05/21 04:43:09;;;;;;;2.67;1.00;;;18.60;99.90;;;;;;5034872;28;20025;-66
2022/05/21 04:45:36;;;;;;;5.47;1.13;;;18.60;99.90;;;;;;5039572;28;20017;-72
2022/05/21 04:48:05;;;;;;;4.85;1.05;;;18.60;99.90;;;;;;5033865;28;20025;-67
2022/05/21 04:50:35;;;;;;;6.80;1.50;;;18.60;99.90;;;;;;5038218;28;20022;-70
2022/05/21 04:53:02;;;;;;;7.07;1.38;;;18.50;99.90;;;;;;5037748;28;20380;-66
2022/05/21 04:55:30;;;;;;;4.25;1.65;;;18.50;99.90;;;;;;5017524;28;20404;-67
2022/05/21 04:57:57;;;;;;;4.13;1.70;;;18.60;99.90;;;;;;5038572;28;20091;-74
2022/05/21 05:00:25;;;;;;;4.05;1.10;;;18.60;99.90;;;;;;5041635;28;20032;-74
2022/05/21 05:02:52;;;;;;;3.92;1.45;;;18.50;99.90;;;;;;5036504;28;20458;-68
2022/05/21 05:05:19;;;;;;;7.55;1.50;;;18.40;99.90;;;;;;5039757;28;20079;-75
2022/05/21 05:07:46;;;;;;;5.35;1.77;;;18.40;99.90;;;;;;5045575;28;20029;-68
2022/05/21 05:10:13;;;;;;;8.27;1.67;;;18.40;99.90;;;;;;5042001;28;20511;-68
2022/05/21 05:12:40;;;;;;;3.72;1.40;;;18.30;99.90;;;;;;5041517;28;20145;-66
2022/05/21 05:15:08;;;;;;;2.15;1.52;;;18.30;99.90;;;;;;5047899;28;20025;-68
2022/05/21 05:17:35;;;;;;;4.70;1.20;;;18.30;99.90;;;;;;5040550;28;20025;-75
2022/05/21 05:20:03;;;;;;;7.70;1.90;;;18.20;99.90;;;;;;5035291;28;20482;-67
2022/05/21 05:22:30;;;;;;;5.82;1.20;;;18.20;99.90;;;;;;5046009;28;20108;-67
2022/05/21 05:24:57;;;;;;;5.35;1.60;;;18.00;99.90;;;;;;5043768;28;20045;-67
2022/05/21 05:27:24;;;;;;;3.72;1.45;;;17.90;99.90;;;;;;5038840;28;20538;-72
2022/05/21 05:29:51;;;;;;;4.80;1.40;;;17.80;99.90;;;;;;5043035;28;20029;-72
2022/05/21 05:32:18;;;;;;;4.07;1.23;;;17.80;99.90;;;;;;5040977;28;20156;-73
2022/05/21 05:34:45;;;;;;;3.83;1.27;;;17.60;99.90;;;;;;5044970;28;20477;-68
2022/05/21 05:37:12;;;;;;;4.65;1.40;;;17.40;99.90;;;;;;5042642;28;20097;-72
2022/05/21 05:39:39;;;;;;;5.07;1.15;;;17.30;99.90;;;;;;5041516;28;20205;-70
2022/05/21 05:42:06;;;;;;;2.92;0.82;;;17.10;99.90;;;;;;5040148;28;20408;-68
2022/05/21 05:44:33;;;;;;;5.40;1.23;;;17.00;99.90;;;;;;5043159;28;20025;-67
2022/05/21 05:47:00;;;;;;;6.40;1.83;;;17.00;99.90;;;;;;5040805;28;20071;-70
2022/05/21 05:49:27;;;;;;;6.75;1.70;;;17.20;99.90;;;;;;5039599;28;20184;-69
2022/05/21 05:51:54;;;;;;;5.63;1.77;;;17.10;99.90;;;;;;5043866;28;20017;-70
2022/05/21 05:54:21;;;;;;;6.18;1.40;;;17.00;99.90;;;;;;5047899;28;20053;-73
2022/05/21 05:56:48;;;;;;;3.70;1.20;;;16.80;99.90;;;;;;5044072;28;20045;-68
2022/05/21 06:04:45;;;;;;;4.53;1.92;;;16.10;99.90;;;;;;5046529;28;20043;-68
2022/05/21 06:07:15;;;;;;;3.55;1.38;;;15.90;99.90;;;;;;5043134;28;20025;-68
2022/05/21 06:09:42;;;;;;;5.65;1.75;;;15.80;99.90;;;;;;5038401;28;20013;-66
2022/05/21 06:12:10;;;;;;;6.05;2.25;;;15.70;99.90;;;;;;5038879;28;20026;-71
2022/05/21 06:14:38;;;;;;;3.00;1.58;;;15.60;99.90;;;;;;5044291;28;20020;-74
2022/05/21 06:17:05;;;;;;;4.72;1.40;;;15.60;99.90;;;;;;5042967;28;20024;-74
2022/05/21 06:19:32;;;;;;;5.80;1.13;;;15.60;99.90;;;;;;5040466;28;20025;-69
2022/05/21 06:22:01;;;;;;;5.43;1.00;;;15.60;99.90;;;;;;5040440;28;20024;-67
2022/05/21 06:24:28;;;;;;;2.05;1.02;;;15.60;99.90;;;;;;5040399;28;20152;-69
2022/05/21 06:26:56;;;;;;;2.08;1.15;;;15.60;99.90;;;;;;5039196;28;20113;-68
2022/05/21 06:29:23;;;;;;;4.53;1.70;;;15.60;99.90;;;;;;5039399;28;20063;-65
2022/05/21 06:31:50;;;;;;;4.63;1.88;;;15.50;99.90;;;;;;5039593;28;20349;-65
2022/05/21 06:34:17;;;;;;;3.88;1.33;;;15.50;99.90;;;;;;5041408;28;20116;-70
2022/05/21 06:36:44;;;;;;;3.97;1.83;;;15.50;99.90;;;;;;5047862;28;20027;-67
2022/05/21 06:39:11;;;;;;;3.45;1.92;;;15.40;99.90;;;;;;5041124;28;20032;-69
2022/05/21 06:41:38;;;;;;;7.65;2.08;;;15.40;99.90;;;;;;5040693;28;20057;-69
2022/05/21 06:44:05;;;;;;;5.05;1.40;;;15.30;99.90;;;;;;5043740;28;20033;-67
2022/05/21 06:46:32;;;;;;;4.22;2.33;;;15.30;99.90;;;;;;5045298;28;20581;-68
2022/05/21 06:48:59;;;;;;;4.50;2.50;;;15.30;99.90;;;;;;5043191;28;20017;-68
2022/05/21 06:51:26;;;;;;;4.50;1.85;;;15.30;99.90;;;;;;5039758;28;20020;-67
2022/05/21 06:53:53;;;;;;;3.30;1.50;;;15.30;99.90;;;;;;5038440;28;20668;-70
2022/05/21 06:56:20;;;;;;;2.78;1.42;;;15.20;99.90;;;;;;5037058;28;20076;-70
2022/05/21 06:58:50;;;;;;;4.88;1.90;;;15.10;99.90;;;;;;5038616;28;20117;-70
2022/05/21 07:01:17;;;;;;;6.57;2.35;;;15.10;99.90;;;;;;5032607;28;20032;-68
2022/05/21 07:03:44;;;;;;;4.82;2.00;;;15.20;99.90;;;;;;5045473;28;20057;-69
2022/05/21 07:08:56;;;;;;;6.18;1.98;;;15.20;99.90;;;;;;5040017;28;20451;-70
2022/05/21 07:11:23;;;;;;;5.22;3.15;;;15.20;99.90;;;;;;5041830;28;20028;-71
2022/05/21 07:13:50;;;;;;;6.70;1.60;;;15.10;99.90;;;;;;5040789;28;20036;-72
2022/05/21 07:16:17;;;;;;;4.75;2.05;;;15.00;99.90;;;;;;5044136;28;20057;-67
2022/05/21 07:18:44;;;;;;;4.00;1.90;;;14.90;99.90;;;;;;5021184;28;20165;-65
2022/05/21 07:21:15;;;;;;;4.93;1.92;;;14.90;99.90;;;;;;5039523;28;20024;-70
2022/05/21 07:23:42;;;;;;;3.17;1.10;;;14.90;99.90;;;;;;5033014;28;20116;-72
2022/05/21 07:26:09;;;;;;;10.52;2.45;;;14.80;99.90;;;;;;5038173;28;20029;-71
2022/05/21 07:28:36;;;;;;;4.05;1.80;;;14.90;99.90;;;;;;5039667;28;20030;-69
2022/05/21 07:31:04;;;;;;;4.47;1.60;;;14.90;99.90;;;;;;5036963;28;20017;-67
2022/05/21 07:33:31;;;;;;;8.20;3.05;;;14.90;99.90;;;;;;5041839;28;20028;-72
2022/05/21 07:35:58;;;;;;;4.03;1.40;;;14.90;99.90;;;;;;5039223;28;20325;-74
2022/05/21 07:38:25;;;;;;;3.95;1.80;;;14.70;99.90;;;;;;5043023;28;20032;-71
2022/05/21 07:40:53;;;;;;;3.63;1.67;;;14.70;99.90;;;;;;5046543;28;20061;-73
2022/05/21 07:43:27;;;;;;;9.15;2.47;;;14.60;99.90;;;;;;5046514;28;20064;-73
2022/05/21 07:45:55;;;;;;;7.15;2.00;;;14.60;99.90;;;;;;5044117;28;20112;-72
2022/05/21 07:48:22;;;;;;;4.32;1.58;;;14.70;99.90;;;;;;5048722;28;20025;-68
2022/05/21 07:50:57;;;;;;;8.52;2.22;;;14.60;99.90;;;;;;5050906;28;20028;-73
2022/05/21 07:53:28;;;;;;;6.80;1.95;;;14.60;99.90;;;;;;5045084;28;20435;-70
2022/05/21 07:55:56;;;;;;;5.43;1.77;;;14.40;99.90;;;;;;5053848;28;20052;-75
2022/05/21 07:58:26;;;;;;;8.90;2.00;;;14.40;99.90;;;;;;5052498;28;20021;-69
2022/05/21 08:00:54;;;;;;;5.97;2.15;;;14.40;99.90;;;;;;5041435;28;20068;-66
2022/05/21 08:03:22;;;;;;;9.35;2.13;;;14.30;99.90;;;;;;5050826;28;20558;-74
2022/05/21 08:05:49;;;;;;;7.32;2.28;;;14.30;99.90;;;;;;5054687;28;20681;-74
2022/05/21 08:08:16;;;;;;;5.07;2.03;;;14.30;99.90;;;;;;5037406;28;20347;-69
2022/05/21 08:10:46;;;;;;;4.78;1.90;;;14.40;99.90;;;;;;5042658;28;20029;-69
2022/05/21 08:13:14;;;;;;;5.93;1.70;;;14.40;99.90;;;;;;5052294;28;20043;-74
2022/05/21 08:15:42;;;;;;;2.78;1.70;;;14.30;99.90;;;;;;5041932;28;20029;-69
2022/05/21 08:18:09;;;;;;;5.03;2.03;;;14.30;99.90;;;;;;5032670;28;20120;-73
2022/05/21 08:20:38;;;;;;;5.35;1.90;;;14.40;99.90;;;;;;5046873;28;20041;-69
2022/05/21 08:28:36;;;;;;;6.80;1.80;;;14.20;99.90;;;;;;5042638;28;20110;-68
2022/05/21 08:31:03;;;;;;;5.50;1.60;;;14.20;99.90;;;;;;5038717;28;20025;-69
2022/05/21 08:33:31;;;;;;;5.70;2.38;;;14.10;99.90;;;;;;5052890;28;20024;-71
2022/05/21 08:35:58;;;;;;;7.97;2.25;;;14.20;99.90;;;;;;5053257;28;20036;-75
2022/05/21 08:38:25;;;;;;;3.80;1.55;;;14.20;99.90;;;;;;5044191;28;20098;-71
2022/05/21 08:41:03;;;;;;;10.10;1.88;;;14.20;99.90;;;;;;5043035;28;20823;-68
2022/05/21 08:44:03;;;;;;;4.80;1.88;;;14.20;99.90;;;;;;5051673;28;20033;-70
2022/05/21 08:47:00;;;;;;;4.03;1.33;;;14.20;99.90;;;;;;5023881;28;20021;-74
2022/05/21 08:49:38;;;;;;;3.35;1.30;;;14.30;99.90;;;;;;5032905;28;20040;-72
2022/05/21 08:52:35;;;;;;;3.10;2.10;;;14.20;99.90;;;;;;5042366;28;20498;-68
2022/05/21 08:55:06;;;;;;;6.38;1.63;;;14.00;99.90;;;;;;5043731;28;20064;-67
2022/05/21 08:57:52;;;;;;;6.80;1.70;;;14.00;99.90;;;;;;5046321;28;20360;-72
2022/05/21 09:00:21;;;;;;;2.95;1.40;;;14.00;99.90;;;;;;5048107;28;20035;-71
2022/05/21 09:02:49;;;;;;;2.72;1.48;;;14.00;99.90;;;;;;5051452;28;20090;-75
2022/05/21 09:05:18;;;;;;;4.22;1.65;;;14.00;99.90;;;;;;5051259;28;20082;-70
2022/05/21 09:07:54;;;;;;;4.32;1.35;;;14.00;99.90;;;;;;5038397;28;20393;-73
2022/05/21 09:10:33;;;;;;;5.80;1.60;;;14.00;99.90;;;;;;5038495;28;20020;-73
2022/05/21 09:13:16;;;;;;;5.72;2.67;;;13.90;99.90;;;;;;5040172;28;20025;-77
2022/05/21 09:18:34;;;;;;;1.83;1.40;;;13.90;99.90;;;;;;5049126;28;20082;-76
2022/05/21 09:21:10;;;;;;;4.20;1.60;;;13.80;99.90;;;;;;5061970;28;20020;-73
2022/05/21 09:23:54;;;;;;;2.90;1.42;;;13.70;99.90;;;;;;5061396;28;20280;-69
2022/05/21 09:26:24;;;;;;;5.47;1.60;;;13.70;99.90;;;;;;5060372;28;20024;-69
2022/05/21 09:28:52;;;;;;;6.03;2.80;;;13.80;99.90;;;;;;5054158;28;20035;-72
2022/05/21 09:31:36;;;;;;;4.93;1.88;;;13.80;99.90;;;;;;5046086;28;20024;-69
2022/05/21 09:34:35;;;;;;;5.07;2.00;;;13.80;99.90;;;;;;5040203;28;20362;-70
2022/05/21 09:37:03;;;;;;;4.50;1.88;;;13.90;99.90;;;;;;4974414;28;20065;-72
2022/05/21 09:39:41;;;;;;;5.97;1.90;;;13.90;99.90;;;;;;4981485;28;20060;-69
2022/05/21 09:45:32;;;;;;;6.90;3.03;;;14.00;99.90;;;;;;4920900;29;20050;-69
2022/05/21 09:48:07;;;;;;;7.20;2.38;;;14.10;99.90;;;;;;4922087;29;20048;-67
2022/05/21 09:50:48;;;;;;;6.60;2.70;;;14.10;99.90;;;;;;4923154;29;20468;-69
2022/05/21 09:53:29;;;;;;;3.80;2.25;;;14.20;99.90;;;;;;4924386;29;20104;-68
2022/05/21 09:56:02;;;;;;;7.32;3.30;;;14.20;99.90;;;;;;4926486;29;20075;-71
2022/05/21 09:58:37;;;;;;;7.03;4.38;;;14.20;99.90;;;;;;4926343;29;20059;-68
2022/05/21 10:01:05;;;;;;;8.32;7.53;;;14.20;99.90;;;;;;4925441;29;20036;-71
2022/05/21 10:03:45;;;;;;;9.23;8.30;;;14.20;99.90;;;;;;4925769;29;20195;-71
2022/05/21 10:06:28;;;;;;;9.68;8.32;;;14.20;99.90;;;;;;4924324;29;20055;-69
2022/05/21 10:12:13;;;;;;;9.43;7.00;;;14.20;99.90;;;;;;4925725;29;20211;-72
2022/05/21 10:15:06;;;;;;;7.97;4.90;;;14.20;99.90;;;;;;4974188;28;20170;-69
2022/05/21 10:17:45;;;;;;;5.75;2.63;;;14.10;99.90;;;;;;4976230;28;20105;-68
2022/05/21 10:20:20;;;;;;;4.80;2.28;;;14.10;99.90;;;;;;4988227;28;20076;-74
2022/05/21 10:23:38;;;;;;;5.45;2.30;;;14.10;99.90;;;;;;5016087;28;20248;-72
2022/05/21 10:26:31;;;;;;;6.07;2.03;;;14.10;99.90;;;;;;4935926;29;20054;-73
2022/05/21 10:29:34;;;;;;;4.35;1.75;;;14.10;99.90;;;;;;4933269;29;20039;-73
2022/05/21 10:32:21;;;;;;;3.25;1.83;;;14.10;99.90;;;;;;4892599;29;20032;-72
2022/05/21 10:35:17;;;;;;;4.65;1.80;;;14.10;99.90;;;;;;4894423;29;20120;-69
2022/05/21 10:37:58;;;;;;;6.63;1.80;;;14.10;99.90;;;;;;4892734;29;20068;-71
2022/05/21 10:40:34;;;;;;;3.10;1.90;;;14.10;99.90;;;;;;4888049;29;20040;-68
2022/05/21 10:43:12;;;;;;;5.38;1.80;;;14.00;99.90;;;;;;4892840;29;20502;-72
2022/05/21 10:46:04;;;;;;;3.33;1.65;;;14.00;99.90;;;;;;4895318;29;20257;-68
2022/05/21 10:48:55;;;;;;;3.53;1.65;;;14.10;99.90;;;;;;4890957;29;20357;-69
2022/05/21 10:51:36;;;;;;;3.75;1.75;;;14.10;99.90;;;;;;4892434;29;20020;-68
2022/05/21 10:54:29;;;;;;;5.35;1.48;;;14.10;99.90;;;;;;4892198;29;20071;-72
2022/05/21 10:57:26;;;;;;;2.90;1.48;;;14.00;99.90;;;;;;4913555;29;20193;-70
2022/05/21 11:00:15;;;;;;;2.97;1.40;;;14.00;99.90;;;;;;4910360;29;20039;-72
2022/05/21 11:03:17;;;;;;;2.97;1.90;;;14.00;99.90;;;;;;4985958;28;20038;-71
2022/05/21 11:06:04;;;;;;;2.92;1.85;;;14.00;99.90;;;;;;5010801;28;20133;-67
2022/05/21 11:08:49;;;;;;;3.35;1.80;;;14.00;99.90;;;;;;5036379;28;20024;-67
2022/05/21 11:11:45;;;;;;;1.38;1.25;;;14.00;99.90;;;;;;5034984;28;20021;-75
2022/05/21 11:14:19;;;;;;;2.78;1.50;;;14.00;99.90;;;;;;5034737;28;20224;-68
2022/05/21 11:16:52;;;;;;;2.05;1.30;;;14.00;99.90;;;;;;5039933;28;20136;-72
2022/05/21 11:19:53;;;;;;;4.25;1.67;;;14.00;99.90;;;;;;5035528;28;20024;-68
2022/05/21 11:22:26;;;;;;;4.53;1.50;;;14.00;99.90;;;;;;5029537;28;20025;-70
2022/05/21 11:25:12;;;;;;;5.22;1.80;;;14.00;99.90;;;;;;5035162;28;20033;-73
2022/05/21 11:28:09;;;;;;;3.50;1.60;;;14.00;99.90;;;;;;5045057;28;20025;-68
2022/05/21 11:30:36;;;;;;;5.85;2.00;;;14.00;99.90;;;;;;5027599;28;20387;-71
2022/05/21 11:38:52;;;;;;;5.13;1.80;;;13.90;99.90;;;;;;5040884;28;20407;-69
2022/05/21 11:41:30;;;;;;;5.07;1.88;;;14.00;99.90;;;;;;5045023;28;20090;-70
2022/05/21 11:43:57;;;;;;;3.30;1.70;;;14.00;99.90;;;;;;5045024;28;20096;-68
2022/05/21 11:46:45;;;;;;;3.50;1.70;;;14.00;99.90;;;;;;5045452;28;20513;-73
2022/05/21 11:49:32;;;;;;;5.43;2.08;;;14.00;99.90;;;;;;5045410;28;20025;-73
2022/05/21 11:52:19;;;;;;;4.22;2.22;;;14.00;99.90;;;;;;5051919;28;20017;-68
2022/05/21 11:54:47;;;;;;;3.40;1.95;;;14.00;99.90;;;;;;5044136;28;20036;-71
2022/05/21 11:57:34;;;;;;;5.07;1.73;;;14.00;99.90;;;;;;5036253;28;20060;-69
2022/05/21 12:00:25;;;;;;;4.47;1.98;;;14.00;99.90;;;;;;5032296;28;20021;-69
2022/05/21 12:02:54;;;;;;;3.30;1.70;;;14.00;99.90;;;;;;4960266;28;20521;-72
2022/05/21 12:05:34;;;;;;;3.28;1.58;;;14.00;99.90;;;;;;4962174;28;20038;-71
2022/05/21 12:08:29;;;;;;;2.42;2.00;;;13.90;99.90;;;;;;4961626;28;20074;-68
2022/05/21 12:11:04;;;;;;;4.90;1.60;;;13.90;99.90;;;;;;4981427;28;20022;-68
2022/05/21 12:13:34;;;;;;;5.22;2.80;;;14.00;99.90;;;;;;4965280;28;20895;-67
2022/05/21 12:16:22;;;;;;;3.15;1.90;;;13.90;99.90;;;;;;4981252;28;20034;-67
2022/05/21 12:18:50;;;;;;;4.10;1.38;;;13.90;99.90;;;;;;4981661;28;20385;-70
2022/05/21 12:21:29;;;;;;;3.20;1.38;;;13.90;99.90;;;;;;4981857;28;20277;-67
2022/05/21 12:23:56;;;;;;;2.72;1.17;;;13.90;99.90;;;;;;4981763;28;20436;-72
2022/05/21 12:26:25;;;;;;;3.08;1.67;;;13.90;99.90;;;;;;4965160;28;20393;-70
2022/05/21 12:29:15;;;;;;;3.80;2.10;;;13.80;99.90;;;;;;4981333;28;20429;-70
2022/05/21 12:31:55;;;;;;;3.88;2.53;;;13.80;99.90;;;;;;4981145;28;20026;-71
2022/05/21 12:34:37;;;;;;;6.50;3.30;;;13.80;99.90;;;;;;4982072;28;20038;-68
2022/05/21 12:37:16;;;;;;;5.82;3.70;;;13.80;99.90;;;;;;4981598;28;20501;-67
2022/05/21 12:40:04;;;;;;;5.72;3.45;;;13.90;99.90;;;;;;4999947;28;20094;-66
2022/05/21 12:42:43;;;;;;;4.07;3.45;;;13.90;99.90;;;;;;5044197;28;20546;-71
2022/05/21 12:45:12;;;;;;;6.45;3.45;;;13.90;99.90;;;;;;5056587;28;20453;-65
2022/05/21 12:47:43;;;;;;;5.30;3.60;;;13.90;99.90;;;;;;5044574;28;20032;-69
2022/05/21 12:50:24;;;;;;;4.22;3.20;;;13.90;99.90;;;;;;5044083;28;20073;-70
2022/05/21 12:52:56;;;;;;;5.45;2.83;;;13.90;99.90;;;;;;5044328;28;20025;-70
2022/05/21 12:55:32;;;;;;;6.95;2.90;;;13.80;99.90;;;;;;5043454;28;20132;-67
2022/05/21 12:58:19;;;;;;;4.00;2.22;;;13.90;99.90;;;;;;5044213;28;20029;-67
2022/05/21 13:00:55;;;;;;;3.65;2.65;;;13.90;99.90;;;;;;5051695;28;20105;-66
2022/05/21 13:03:24;;;;;;;4.43;1.65;;;13.80;99.90;;;;;;5043134;28;20029;-66
2022/05/21 13:05:58;;;;;;;2.75;1.92;;;13.80;99.90;;;;;;5044486;28;20021;-70
2022/05/21 13:08:28;;;;;;;5.07;1.63;;;13.90;99.90;;;;;;5027223;28;20078;-67
2022/05/21 13:11:03;;;;;;;2.40;1.92;;;13.90;99.90;;;;;;5044826;28;20094;-75
2022/05/21 13:13:36;;;;;;;3.50;1.80;;;13.80;99.90;;;;;;5044550;28;20025;-75
2022/05/21 13:16:06;;;;;;;3.25;1.42;;;13.80;99.90;;;;;;5043995;28;20033;-76
2022/05/21 13:18:51;;;;;;;3.63;1.70;;;13.70;99.90;;;;;;5044987;28;20033;-76
2022/05/21 13:21:42;;;;;;;4.18;1.65;;;13.70;99.90;;;;;;5044650;28;20507;-67
2022/05/21 13:24:24;;;;;;;3.88;1.50;;;13.70;99.90;;;;;;5051878;28;20029;-76
2022/05/21 13:27:15;;;;;;;2.55;1.30;;;13.60;99.90;;;;;;5027057;28;20122;-68
2022/05/21 13:29:43;;;;;;;2.22;1.45;;;13.60;99.90;;;;;;5048782;28;20025;-74
2022/05/21 13:32:32;;;;;;;5.40;1.92;;;13.70;99.90;;;;;;5048476;28;20028;-68
2022/05/21 13:35:18;;;;;;;3.33;1.70;;;13.70;99.90;;;;;;5055252;28;20491;-73
2022/05/21 13:37:45;;;;;;;3.63;2.10;;;13.70;99.90;;;;;;5048469;28;20112;-74
2022/05/21 13:40:24;;;;;;;6.90;2.60;;;13.70;99.90;;;;;;5053145;28;20112;-74
2022/05/21 13:43:13;;;;;;;2.67;1.95;;;13.70;99.90;;;;;;5048111;28;20025;-66
2022/05/21 13:45:55;;;;;;;3.30;1.92;;;13.70;99.90;;;;;;5047609;28;20167;-74
2022/05/21 13:48:28;;;;;;;4.30;2.20;;;13.70;99.90;;;;;;5048347;28;20483;-75